sensor_id;sensor_type;location;lat;lon;timestamp;temperature;humidity
36458;DHT22;22480;50.546;12.292;2023-11-25T00:00:46;-0.10;99.90
36458;DHT22;22480;50.546;12.292;2023-11-25T00:03:12;0.00;99.90
36458;DHT22;22480;50.546;12.292;2023-11-25T00:05:39;0.00;99.90
36458;DHT22;22480;50.546;12.292;2023-11-25T00:08:05;-0.10;99.90
36458;DHT22;22480;50.546;12.292;2023-11-25T00:10:30;-0.10;99.90
36458;DHT22;22480;50.546;12.292;2023-11-25T00:12:56;-0.20;99.90
36458;DHT22;22480;50.546;12.292;2023-11-25T00:15:22;-0.20;99.90
36458;DHT22;22480;50.546;12.292;2023-11-25T00:17:52;-0.20;99.90
36458;DHT22;22480;50.546;12.292;2023-11-25T00:20:22;-0.20;99.90
36458;DHT22;22480;50.546;12.292;2023-11-25T00:22:49;-0.20;99.90
36458;DHT22;22480;50.546;12.292;2023-11-25T00:25:14;-0.30;99.90
36458;DHT22;22480;50.546;12.292;2023-11-25T00:27:42;-0.30;99.90
36458;DHT22;22480;50.546;12.292;2023-11-25T00:30:08;-0.30;99.90
36458;DHT22;22480;50.546;12.292;2023-11-25T00:32:34;-0.30;99.90
36458;DHT22;22480;50.546;12.292;2023-11-25T00:35:06;-0.30;99.90
36458;DHT22;22480;50.546;12.292;2023-11-25T00:37:32;-0.30;99.90
36458;DHT22;22480;50.546;12.292;2023-11-25T00:39:58;-0.30;99.90
36458;DHT22;22480;50.546;12.292;2023-11-25T00:42:30;-0.30;99.90
36458;DHT22;22480;50.546;12.292;2023-11-25T00:44:56;-0.30;99.90
36458;DHT22;22480;50.546;12.292;2023-11-25T00:47:22;-0.30;99.90
36458;DHT22;22480;50.546;12.292;2023-11-25T00:49:49;-0.30;99.90
36458;DHT22;22480;50.546;12.292;2023-11-25T00:52:15;-0.30;99.90
36458;DHT22;22480;50.546;12.292;2023-11-25T00:54:43;-0.30;99.90
36458;DHT22;22480;50.546;12.292;2023-11-25T00:57:08;-0.30;99.90
36458;DHT22;22480;50.546;12.292;2023-11-25T00:59:34;-0.30;99.90
36458;DHT22;22480;50.546;12.292;2023-11-25T01:02:00;-0.30;99.90
36458;DHT22;22480;50.546;12.292;2023-11-25T01:04:26;-0.30;99.90
36458;DHT22;22480;50.546;12.292;2023-11-25T01:06:52;-0.30;99.90
36458;DHT22;22480;50.546;12.292;2023-11-25T01:09:18;-0.40;99.90
36458;DHT22;22480;50.546;12.292;2023-11-25T01:11:47;-0.30;99.90
36458;DHT22;22480;50.546;12.292;2023-11-25T01:14:14;-0.20;99.90
36458;DHT22;22480;50.546;12.292;2023-11-25T01:16:40;-0.20;99.90
36458;DHT22;22480;50.546;12.292;2023-11-25T01:19:06;-0.30;99.90
36458;DHT22;22480;50.546;12.292;2023-11-25T01:21:32;-0.30;99.90
36458;DHT22;22480;50.546;12.292;2023-11-25T01:23:58;-0.20;99.90
36458;DHT22;22480;50.546;12.292;2023-11-25T01:26:23;-0.30;99.90
36458;DHT22;22480;50.546;12.292;2023-11-25T01:28:49;-0.30;99.90
36458;DHT22;22480;50.546;12.292;2023-11-25T01:31:15;-0.30;99.90
36458;DHT22;22480;50.546;12.292;2023-11-25T01:33:41;-0.30;99.90
36458;DHT22;22480;50.546;12.292;2023-11-25T01:36:08;-0.30;99.90
36458;DHT22;22480;50.546;12.292;2023-11-25T01:38:38;-0.30;99.90
36458;DHT22;22480;50.546;12.292;2023-11-25T01:41:06;-0.30;99.90
36458;DHT22;22480;50.546;12.292;2023-11-25T01:43:32;-0.30;99.90
36458;DHT22;22480;50.546;12.292;2023-11-25T01:45:59;-0.30;99.90
36458;DHT22;22480;50.546;12.292;2023-11-25T01:48:27;-0.30;99.90
36458;DHT22;22480;50.546;12.292;2023-11-25T01:50:55;-0.20;99.90
36458;DHT22;22480;50.546;12.292;2023-11-25T01:53:21;-0.30;99.90
36458;DHT22;22480;50.546;12.292;2023-11-25T01:55:50;-0.30;99.90
36458;DHT22;22480;50.546;12.292;2023-11-25T01:58:18;-0.30;99.90
36458;DHT22;22480;50.546;12.292;2023-11-25T02:00:46;-0.30;99.90
36458;DHT22;22480;50.546;12.292;2023-11-25T02:03:16;-0.30;99.90
36458;DHT22;22480;50.546;12.292;2023-11-25T02:05:42;-0.40;99.90
36458;DHT22;22480;50.546;12.292;2023-11-25T02:08:09;-0.40;99.90
36458;DHT22;22480;50.546;12.292;2023-11-25T02:10:35;-0.30;99.90
36458;DHT22;22480;50.546;12.292;2023-11-25T02:13:01;-0.40;99.90
36458;DHT22;22480;50.546;12.292;2023-11-25T02:15:37;-0.40;99.90
36458;DHT22;22480;50.546;12.292;2023-11-25T02:18:04;-0.40;99.90
36458;DHT22;22480;50.546;12.292;2023-11-25T02:20:35;-0.40;99.90
36458;DHT22;22480;50.546;12.292;2023-11-25T02:23:19;-0.40;99.90
36458;DHT22;22480;50.546;12.292;2023-11-25T02:25:49;-0.50;99.90
36458;DHT22;22480;50.546;12.292;2023-11-25T02:28:16;-0.50;99.90
36458;DHT22;22480;50.546;12.292;2023-11-25T02:30:42;-0.50;99.90
36458;DHT22;22480;50.546;12.292;2023-11-25T02:33:09;-0.40;99.90
36458;DHT22;22480;50.546;12.292;2023-11-25T02:35:35;-0.40;99.90
36458;DHT22;22480;50.546;12.292;2023-11-25T02:38:01;-0.40;99.90
36458;DHT22;22480;50.546;12.292;2023-11-25T02:40:26;-0.40;99.90
36458;DHT22;22480;50.546;12.292;2023-11-25T02:42:53;-0.40;99.90
36458;DHT22;22480;50.546;12.292;2023-11-25T02:45:21;-0.40;99.90
36458;DHT22;22480;50.546;12.292;2023-11-25T02:47:50;-0.40;99.90
36458;DHT22;22480;50.546;12.292;2023-11-25T02:50:18;-0.40;99.90
36458;DHT22;22480;50.546;12.292;2023-11-25T02:52:45;-0.40;99.90
36458;DHT22;22480;50.546;12.292;2023-11-25T02:55:11;-0.30;99.90
36458;DHT22;22480;50.546;12.292;2023-11-25T02:57:42;-0.40;99.90
36458;DHT22;22480;50.546;12.292;2023-11-25T03:00:11;-0.30;99.90
36458;DHT22;22480;50.546;12.292;2023-11-25T03:03:00;-0.30;99.90
36458;DHT22;22480;50.546;12.292;2023-11-25T03:05:34;-0.40;99.90
36458;DHT22;22480;50.546;12.292;2023-11-25T03:07:59;-0.40;99.90
36458;DHT22;22480;50.546;12.292;2023-11-25T03:10:28;-0.30;99.90
36458;DHT22;22480;50.546;12.292;2023-11-25T03:12:55;-0.40;99.90
36458;DHT22;22480;50.546;12.292;2023-11-25T03:15:21;-0.30;99.90
36458;DHT22;22480;50.546;12.292;2023-11-25T03:17:47;-0.30;99.90
36458;DHT22;22480;50.546;12.292;2023-11-25T03:20:13;-0.30;99.90
36458;DHT22;22480;50.546;12.292;2023-11-25T03:22:39;-0.30;99.90
36458;DHT22;22480;50.546;12.292;2023-11-25T03:25:05;-0.30;99.90
36458;DHT22;22480;50.546;12.292;2023-11-25T03:27:32;-0.30;99.90
36458;DHT22;22480;50.546;12.292;2023-11-25T03:29:58;-0.40;99.90
36458;DHT22;22480;50.546;12.292;2023-11-25T03:32:24;-0.40;99.90
36458;DHT22;22480;50.546;12.292;2023-11-25T03:34:52;-0.40;99.90
36458;DHT22;22480;50.546;12.292;2023-11-25T03:37:18;-0.40;99.90
36458;DHT22;22480;50.546;12.292;2023-11-25T03:39:44;-0.40;99.90
36458;DHT22;22480;50.546;12.292;2023-11-25T03:42:10;-0.30;99.90
36458;DHT22;22480;50.546;12.292;2023-11-25T03:44:36;-0.40;99.90
36458;DHT22;22480;50.546;12.292;2023-11-25T03:47:02;-0.40;99.90
36458;DHT22;22480;50.546;12.292;2023-11-25T03:49:30;-0.40;99.90
36458;DHT22;22480;50.546;12.292;2023-11-25T03:51:56;-0.40;99.90
36458;DHT22;22480;50.546;12.292;2023-11-25T03:54:21;-0.40;99.90
36458;DHT22;22480;50.546;12.292;2023-11-25T03:56:48;-0.40;99.90
36458;DHT22;22480;50.546;12.292;2023-11-25T03:59:15;-0.40;99.90
36458;DHT22;22480;50.546;12.292;2023-11-25T04:01:41;-0.50;99.90
36458;DHT22;22480;50.546;12.292;2023-11-25T04:04:10;-0.50;99.90
36458;DHT22;22480;50.546;12.292;2023-11-25T04:06:36;-0.50;99.90
36458;DHT22;22480;50.546;12.292;2023-11-25T04:09:01;-0.50;99.90
36458;DHT22;22480;50.546;12.292;2023-11-25T04:11:27;-0.50;99.90
36458;DHT22;22480;50.546;12.292;2023-11-25T04:13:53;-0.50;99.90
36458;DHT22;22480;50.546;12.292;2023-11-25T04:16:23;-0.60;99.90
36458;DHT22;22480;50.546;12.292;2023-11-25T04:18:49;-0.60;99.90
36458;DHT22;22480;50.546;12.292;2023-11-25T04:21:14;-0.60;99.90
36458;DHT22;22480;50.546;12.292;2023-11-25T04:23:41;-0.60;99.90
36458;DHT22;22480;50.546;12.292;2023-11-25T04:26:07;-0.60;99.90
36458;DHT22;22480;50.546;12.292;2023-11-25T04:28:33;-0.60;99.90
36458;DHT22;22480;50.546;12.292;2023-11-25T04:30:59;-0.60;99.90
36458;DHT22;22480;50.546;12.292;2023-11-25T04:33:25;-0.60;99.90
36458;DHT22;22480;50.546;12.292;2023-11-25T04:35:51;-0.60;99.90
36458;DHT22;22480;50.546;12.292;2023-11-25T04:38:19;-0.60;99.90
36458;DHT22;22480;50.546;12.292;2023-11-25T04:40:45;-0.60;99.90
36458;DHT22;22480;50.546;12.292;2023-11-25T04:43:11;-0.70;99.90
36458;DHT22;22480;50.546;12.292;2023-11-25T04:45:36;-0.70;99.90
36458;DHT22;22480;50.546;12.292;2023-11-25T04:48:02;-0.60;99.90
36458;DHT22;22480;50.546;12.292;2023-11-25T04:50:29;-0.70;99.90
36458;DHT22;22480;50.546;12.292;2023-11-25T04:52:55;-0.70;99.90
36458;DHT22;22480;50.546;12.292;2023-11-25T04:55:21;-0.70;99.90
36458;DHT22;22480;50.546;12.292;2023-11-25T04:57:50;-0.80;99.90
36458;DHT22;22480;50.546;12.292;2023-11-25T05:00:16;-0.80;99.90
36458;DHT22;22480;50.546;12.292;2023-11-25T05:02:42;-0.80;99.90
36458;DHT22;22480;50.546;12.292;2023-11-25T05:05:09;-0.90;99.90
36458;DHT22;22480;50.546;12.292;2023-11-25T05:07:35;-0.80;99.90
36458;DHT22;22480;50.546;12.292;2023-11-25T05:10:02;-0.90;99.90
36458;DHT22;22480;50.546;12.292;2023-11-25T05:12:30;-0.90;99.90
36458;DHT22;22480;50.546;12.292;2023-11-25T05:14:55;-0.90;99.90
36458;DHT22;22480;50.546;12.292;2023-11-25T05:17:22;-0.90;99.90
36458;DHT22;22480;50.546;12.292;2023-11-25T05:19:47;-0.90;99.90
36458;DHT22;22480;50.546;12.292;2023-11-25T05:22:13;-0.90;99.90
36458;DHT22;22480;50.546;12.292;2023-11-25T05:24:39;-0.90;99.90
36458;DHT22;22480;50.546;12.292;2023-11-25T05:27:05;-0.90;99.90
36458;DHT22;22480;50.546;12.292;2023-11-25T05:29:31;-1.00;99.90
36458;DHT22;22480;50.546;12.292;2023-11-25T05:31:57;-0.90;99.90
36458;DHT22;22480;50.546;12.292;2023-11-25T05:34:26;-1.00;99.90
36458;DHT22;22480;50.546;12.292;2023-11-25T05:36:52;-1.00;99.90
36458;DHT22;22480;50.546;12.292;2023-11-25T05:39:18;-1.00;99.90
36458;DHT22;22480;50.546;12.292;2023-11-25T05:41:49;-1.00;99.90
36458;DHT22;22480;50.546;12.292;2023-11-25T05:44:15;-1.00;99.90
36458;DHT22;22480;50.546;12.292;2023-11-25T05:46:41;-1.00;99.90
36458;DHT22;22480;50.546;12.292;2023-11-25T05:49:07;-1.00;99.90
36458;DHT22;22480;50.546;12.292;2023-11-25T05:51:37;-1.10;99.90
36458;DHT22;22480;50.546;12.292;2023-11-25T05:54:09;-1.10;99.90
36458;DHT22;22480;50.546;12.292;2023-11-25T05:56:39;-1.30;99.90
36458;DHT22;22480;50.546;12.292;2023-11-25T05:59:06;-1.30;99.90
36458;DHT22;22480;50.546;12.292;2023-11-25T06:01:42;-1.30;99.90
36458;DHT22;22480;50.546;12.292;2023-11-25T06:04:08;-1.30;99.90
36458;DHT22;22480;50.546;12.292;2023-11-25T06:06:35;-1.30;99.90
36458;DHT22;22480;50.546;12.292;2023-11-25T06:09:01;-1.30;99.90
36458;DHT22;22480;50.546;12.292;2023-11-25T06:11:29;-1.40;99.90
36458;DHT22;22480;50.546;12.292;2023-11-25T06:13:56;-1.40;99.90
36458;DHT22;22480;50.546;12.292;2023-11-25T06:16:22;-1.50;99.90
36458;DHT22;22480;50.546;12.292;2023-11-25T06:18:48;-1.50;99.90
36458;DHT22;22480;50.546;12.292;2023-11-25T06:21:15;-1.60;99.90
36458;DHT22;22480;50.546;12.292;2023-11-25T06:23:41;-1.60;99.90
36458;DHT22;22480;50.546;12.292;2023-11-25T06:26:11;-1.70;99.90
36458;DHT22;22480;50.546;12.292;2023-11-25T06:28:41;-1.70;99.90
36458;DHT22;22480;50.546;12.292;2023-11-25T06:31:11;-1.80;99.90
36458;DHT22;22480;50.546;12.292;2023-11-25T06:33:38;-1.80;99.90
36458;DHT22;22480;50.546;12.292;2023-11-25T06:36:04;-1.80;99.90
36458;DHT22;22480;50.546;12.292;2023-11-25T06:38:31;-1.90;99.90
36458;DHT22;22480;50.546;12.292;2023-11-25T06:40:57;-2.00;99.90
36458;DHT22;22480;50.546;12.292;2023-11-25T06:43:22;-2.00;99.90
36458;DHT22;22480;50.546;12.292;2023-11-25T06:45:50;-2.00;99.90
36458;DHT22;22480;50.546;12.292;2023-11-25T06:48:23;-2.00;99.90
36458;DHT22;22480;50.546;12.292;2023-11-25T06:50:49;-2.00;99.90
36458;DHT22;22480;50.546;12.292;2023-11-25T06:53:15;-1.90;99.90
36458;DHT22;22480;50.546;12.292;2023-11-25T06:55:41;-1.90;99.90
36458;DHT22;22480;50.546;12.292;2023-11-25T06:58:12;-1.80;99.90
36458;DHT22;22480;50.546;12.292;2023-11-25T07:00:39;-1.70;99.90
36458;DHT22;22480;50.546;12.292;2023-11-25T07:03:05;-1.60;99.90
36458;DHT22;22480;50.546;12.292;2023-11-25T07:05:31;-1.60;99.90
36458;DHT22;22480;50.546;12.292;2023-11-25T07:07:57;-1.50;99.90
36458;DHT22;22480;50.546;12.292;2023-11-25T07:10:23;-1.50;99.90
36458;DHT22;22480;50.546;12.292;2023-11-25T07:12:49;-1.40;99.90
36458;DHT22;22480;50.546;12.292;2023-11-25T07:15:15;-1.30;99.90
36458;DHT22;22480;50.546;12.292;2023-11-25T07:17:40;-1.30;99.90
36458;DHT22;22480;50.546;12.292;2023-11-25T07:20:07;-1.20;99.90
36458;DHT22;22480;50.546;12.292;2023-11-25T07:22:38;-1.10;99.90
36458;DHT22;22480;50.546;12.292;2023-11-25T07:25:05;-1.10;99.90
36458;DHT22;22480;50.546;12.292;2023-11-25T07:27:31;-1.00;99.90
36458;DHT22;22480;50.546;12.292;2023-11-25T07:29:58;-1.00;99.90
36458;DHT22;22480;50.546;12.292;2023-11-25T07:32:27;-0.90;99.90
36458;DHT22;22480;50.546;12.292;2023-11-25T07:34:52;-0.90;99.90
36458;DHT22;22480;50.546;12.292;2023-11-25T07:37:18;-0.80;99.90
36458;DHT22;22480;50.546;12.292;2023-11-25T07:39:44;-0.80;99.90
36458;DHT22;22480;50.546;12.292;2023-11-25T07:42:10;-0.70;99.90
36458;DHT22;22480;50.546;12.292;2023-11-25T07:44:36;-0.70;99.90
36458;DHT22;22480;50.546;12.292;2023-11-25T07:47:02;-0.70;99.90
36458;DHT22;22480;50.546;12.292;2023-11-25T07:49:28;-0.70;99.90
36458;DHT22;22480;50.546;12.292;2023-11-25T07:51:57;-0.70;99.90
36458;DHT22;22480;50.546;12.292;2023-11-25T07:54:23;-0.70;99.90
36458;DHT22;22480;50.546;12.292;2023-11-25T07:56:49;-0.70;99.90
36458;DHT22;22480;50.546;12.292;2023-11-25T07:59:15;-0.60;99.90
36458;DHT22;22480;50.546;12.292;2023-11-25T08:01:41;-0.50;99.90
36458;DHT22;22480;50.546;12.292;2023-11-25T08:04:06;-0.50;99.90
36458;DHT22;22480;50.546;12.292;2023-11-25T08:06:32;-0.40;99.90
36458;DHT22;22480;50.546;12.292;2023-11-25T08:08:59;-0.40;99.90
36458;DHT22;22480;50.546;12.292;2023-11-25T08:11:25;-0.30;99.90
36458;DHT22;22480;50.546;12.292;2023-11-25T08:13:52;-0.30;99.90
36458;DHT22;22480;50.546;12.292;2023-11-25T08:16:18;-0.20;99.90
36458;DHT22;22480;50.546;12.292;2023-11-25T08:18:44;-0.20;99.90
36458;DHT22;22480;50.546;12.292;2023-11-25T08:21:11;-0.20;99.90
36458;DHT22;22480;50.546;12.292;2023-11-25T08:23:39;-0.10;99.90
36458;DHT22;22480;50.546;12.292;2023-11-25T08:26:05;-0.20;99.90
36458;DHT22;22480;50.546;12.292;2023-11-25T08:28:31;-0.10;99.90
36458;DHT22;22480;50.546;12.292;2023-11-25T08:30:57;-0.10;99.90
36458;DHT22;22480;50.546;12.292;2023-11-25T08:33:23;-0.10;99.90
36458;DHT22;22480;50.546;12.292;2023-11-25T08:35:50;-0.10;99.90
36458;DHT22;22480;50.546;12.292;2023-11-25T08:38:16;0.10;99.90
36458;DHT22;22480;50.546;12.292;2023-11-25T08:40:42;0.10;99.90
36458;DHT22;22480;50.546;12.292;2023-11-25T08:43:08;0.10;99.90
36458;DHT22;22480;50.546;12.292;2023-11-25T08:45:39;0.10;99.90
36458;DHT22;22480;50.546;12.292;2023-11-25T08:48:05;0.20;99.90
36458;DHT22;22480;50.546;12.292;2023-11-25T08:50:33;0.30;99.90
36458;DHT22;22480;50.546;12.292;2023-11-25T08:52:59;0.30;99.90
36458;DHT22;22480;50.546;12.292;2023-11-25T08:55:28;0.50;99.90
36458;DHT22;22480;50.546;12.292;2023-11-25T08:57:53;0.60;99.90
36458;DHT22;22480;50.546;12.292;2023-11-25T09:00:20;0.70;99.90
36458;DHT22;22480;50.546;12.292;2023-11-25T09:02:48;0.70;99.90
36458;DHT22;22480;50.546;12.292;2023-11-25T09:05:16;0.80;99.90
36458;DHT22;22480;50.546;12.292;2023-11-25T09:07:47;0.90;99.90
36458;DHT22;22480;50.546;12.292;2023-11-25T09:10:16;0.90;99.90
36458;DHT22;22480;50.546;12.292;2023-11-25T09:12:42;1.00;99.90
36458;DHT22;22480;50.546;12.292;2023-11-25T09:15:10;1.10;99.90
36458;DHT22;22480;50.546;12.292;2023-11-25T09:17:40;1.10;99.90
36458;DHT22;22480;50.546;12.292;2023-11-25T09:20:08;1.30;99.90
36458;DHT22;22480;50.546;12.292;2023-11-25T09:22:38;1.50;99.90
36458;DHT22;22480;50.546;12.292;2023-11-25T09:25:04;1.50;99.90
36458;DHT22;22480;50.546;12.292;2023-11-25T09:27:30;1.40;99.90
36458;DHT22;22480;50.546;12.292;2023-11-25T09:29:56;1.50;99.90
36458;DHT22;22480;50.546;12.292;2023-11-25T09:32:22;1.70;99.90
36458;DHT22;22480;50.546;12.292;2023-11-25T09:34:48;1.50;99.90
36458;DHT22;22480;50.546;12.292;2023-11-25T09:37:14;1.20;99.90
36458;DHT22;22480;50.546;12.292;2023-11-25T09:39:41;1.00;99.90
36458;DHT22;22480;50.546;12.292;2023-11-25T09:42:07;0.90;99.90
36458;DHT22;22480;50.546;12.292;2023-11-25T09:44:34;0.90;99.90
36458;DHT22;22480;50.546;12.292;2023-11-25T09:47:00;0.90;99.90
36458;DHT22;22480;50.546;12.292;2023-11-25T09:49:27;1.00;99.90
36458;DHT22;22480;50.546;12.292;2023-11-25T09:51:54;1.10;99.90
36458;DHT22;22480;50.546;12.292;2023-11-25T09:54:25;1.00;99.90
36458;DHT22;22480;50.546;12.292;2023-11-25T09:56:51;1.10;99.90
36458;DHT22;22480;50.546;12.292;2023-11-25T09:59:18;1.10;99.90
36458;DHT22;22480;50.546;12.292;2023-11-25T10:01:45;1.10;99.90
36458;DHT22;22480;50.546;12.292;2023-11-25T10:04:14;1.20;99.90
36458;DHT22;22480;50.546;12.292;2023-11-25T10:06:41;0.90;99.90
36458;DHT22;22480;50.546;12.292;2023-11-25T10:09:08;0.90;99.90
36458;DHT22;22480;50.546;12.292;2023-11-25T10:11:38;0.70;99.90
36458;DHT22;22480;50.546;12.292;2023-11-25T10:14:10;0.70;99.90
36458;DHT22;22480;50.546;12.292;2023-11-25T10:16:40;0.80;99.90
36458;DHT22;22480;50.546;12.292;2023-11-25T10:19:22;1.10;99.90
36458;DHT22;22480;50.546;12.292;2023-11-25T10:21:49;1.20;99.90
36458;DHT22;22480;50.546;12.292;2023-11-25T10:24:19;1.30;99.90
36458;DHT22;22480;50.546;12.292;2023-11-25T10:26:48;1.30;99.90
36458;DHT22;22480;50.546;12.292;2023-11-25T10:29:18;1.20;99.90
36458;DHT22;22480;50.546;12.292;2023-11-25T10:31:45;1.20;99.90
36458;DHT22;22480;50.546;12.292;2023-11-25T10:34:17;1.20;99.90
36458;DHT22;22480;50.546;12.292;2023-11-25T10:36:42;1.20;99.90
36458;DHT22;22480;50.546;12.292;2023-11-25T10:39:10;1.20;99.90
36458;DHT22;22480;50.546;12.292;2023-11-25T10:41:37;1.20;99.90
36458;DHT22;22480;50.546;12.292;2023-11-25T10:44:07;1.20;99.90
36458;DHT22;22480;50.546;12.292;2023-11-25T10:46:40;1.00;99.90
36458;DHT22;22480;50.546;12.292;2023-11-25T10:49:08;1.10;99.90
36458;DHT22;22480;50.546;12.292;2023-11-25T10:51:38;1.20;99.90
36458;DHT22;22480;50.546;12.292;2023-11-25T10:54:09;1.20;99.90
36458;DHT22;22480;50.546;12.292;2023-11-25T10:56:36;1.20;99.90
36458;DHT22;22480;50.546;12.292;2023-11-25T10:59:03;1.10;99.90
36458;DHT22;22480;50.546;12.292;2023-11-25T11:01:31;1.00;99.90
36458;DHT22;22480;50.546;12.292;2023-11-25T11:04:02;1.00;99.90
36458;DHT22;22480;50.546;12.292;2023-11-25T11:06:42;0.90;99.90
36458;DHT22;22480;50.546;12.292;2023-11-25T11:09:09;0.60;99.90
36458;DHT22;22480;50.546;12.292;2023-11-25T11:11:50;0.50;99.90
36458;DHT22;22480;50.546;12.292;2023-11-25T11:14:20;0.50;99.90
36458;DHT22;22480;50.546;12.292;2023-11-25T11:19:53;0.50;99.90
36458;DHT22;22480;50.546;12.292;2023-11-25T11:22:21;0.40;99.90
36458;DHT22;22480;50.546;12.292;2023-11-25T11:32:55;0.80;99.90
36458;DHT22;22480;50.546;12.292;2023-11-25T11:35:36;0.90;99.90
36458;DHT22;22480;50.546;12.292;2023-11-25T11:38:28;1.00;99.90
36458;DHT22;22480;50.546;12.292;2023-11-25T11:43:23;1.20;99.90
36458;DHT22;22480;50.546;12.292;2023-11-25T11:45:50;1.30;99.90
36458;DHT22;22480;50.546;12.292;2023-11-25T11:48:15;1.20;99.90
36458;DHT22;22480;50.546;12.292;2023-11-25T11:50:43;1.20;99.90
36458;DHT22;22480;50.546;12.292;2023-11-25T11:55:41;1.20;99.90
36458;DHT22;22480;50.546;12.292;2023-11-25T11:58:12;1.10;99.90
36458;DHT22;22480;50.546;12.292;2023-11-25T12:03:26;1.10;99.90
36458;DHT22;22480;50.546;12.292;2023-11-25T12:05:52;1.10;99.90
36458;DHT22;22480;50.546;12.292;2023-11-25T12:08:19;1.00;99.90
36458;DHT22;22480;50.546;12.292;2023-11-25T12:10:46;0.90;99.90
36458;DHT22;22480;50.546;12.292;2023-11-25T12:13:30;0.90;99.90
36458;DHT22;22480;50.546;12.292;2023-11-25T12:15:57;0.80;99.90
36458;DHT22;22480;50.546;12.292;2023-11-25T12:18:29;0.80;99.90
36458;DHT22;22480;50.546;12.292;2023-11-25T12:20:57;0.80;99.90
36458;DHT22;22480;50.546;12.292;2023-11-25T12:23:26;0.90;99.90
36458;DHT22;22480;50.546;12.292;2023-11-25T12:25:52;1.00;99.90
36458;DHT22;22480;50.546;12.292;2023-11-25T12:28:18;1.00;99.90
36458;DHT22;22480;50.546;12.292;2023-11-25T12:30:44;0.90;99.90
36458;DHT22;22480;50.546;12.292;2023-11-25T12:33:09;0.80;99.90
36458;DHT22;22480;50.546;12.292;2023-11-25T12:35:40;0.80;99.90
36458;DHT22;22480;50.546;12.292;2023-11-25T12:38:06;0.80;99.90
36458;DHT22;22480;50.546;12.292;2023-11-25T12:40:33;0.90;99.90
36458;DHT22;22480;50.546;12.292;2023-11-25T12:43:00;0.90;99.90
36458;DHT22;22480;50.546;12.292;2023-11-25T12:45:38;0.90;99.90
36458;DHT22;22480;50.546;12.292;2023-11-25T12:48:08;0.90;99.90
36458;DHT22;22480;50.546;12.292;2023-11-25T12:51:00;0.90;99.90
36458;DHT22;22480;50.546;12.292;2023-11-25T12:53:30;0.90;99.90
36458;DHT22;22480;50.546;12.292;2023-11-25T12:55:56;0.80;99.90
36458;DHT22;22480;50.546;12.292;2023-11-25T12:58:23;0.80;99.90
36458;DHT22;22480;50.546;12.292;2023-11-25T13:00:53;0.80;99.90
36458;DHT22;22480;50.546;12.292;2023-11-25T13:03:31;0.80;99.90
36458;DHT22;22480;50.546;12.292;2023-11-25T13:06:05;0.90;99.90
36458;DHT22;22480;50.546;12.292;2023-11-25T13:08:32;0.90;99.90
36458;DHT22;22480;50.546;12.292;2023-11-25T13:11:06;0.90;99.90
36458;DHT22;22480;50.546;12.292;2023-11-25T13:13:37;0.90;99.90
36458;DHT22;22480;50.546;12.292;2023-11-25T13:16:04;0.80;99.90
36458;DHT22;22480;50.546;12.292;2023-11-25T13:18:31;0.80;99.90
36458;DHT22;22480;50.546;12.292;2023-11-25T13:21:00;0.90;99.90
36458;DHT22;22480;50.546;12.292;2023-11-25T13:23:33;0.90;99.90
36458;DHT22;22480;50.546;12.292;2023-11-25T13:26:02;0.90;99.90
36458;DHT22;22480;50.546;12.292;2023-11-25T13:28:27;0.90;99.90
36458;DHT22;22480;50.546;12.292;2023-11-25T13:30:53;1.00;99.90
36458;DHT22;22480;50.546;12.292;2023-11-25T13:33:19;1.00;99.90
36458;DHT22;22480;50.546;12.292;2023-11-25T13:35:45;1.00;99.90
36458;DHT22;22480;50.546;12.292;2023-11-25T13:38:12;1.00;99.90
36458;DHT22;22480;50.546;12.292;2023-11-25T13:40:38;1.00;99.90
36458;DHT22;22480;50.546;12.292;2023-11-25T13:43:08;0.90;99.90
36458;DHT22;22480;50.546;12.292;2023-11-25T13:45:35;1.00;99.90
36458;DHT22;22480;50.546;12.292;2023-11-25T13:48:00;1.00;99.90
36458;DHT22;22480;50.546;12.292;2023-11-25T13:50:31;1.00;99.90
36458;DHT22;22480;50.546;12.292;2023-11-25T13:52:57;0.90;99.90
36458;DHT22;22480;50.546;12.292;2023-11-25T13:55:23;1.00;99.90
36458;DHT22;22480;50.546;12.292;2023-11-25T13:57:50;1.00;99.90
36458;DHT22;22480;50.546;12.292;2023-11-25T14:00:17;1.00;99.90
36458;DHT22;22480;50.546;12.292;2023-11-25T14:02:45;1.00;99.90
36458;DHT22;22480;50.546;12.292;2023-11-25T14:05:12;1.00;99.90
36458;DHT22;22480;50.546;12.292;2023-11-25T14:07:40;1.10;99.90
36458;DHT22;22480;50.546;12.292;2023-11-25T14:10:08;1.10;99.90
36458;DHT22;22480;50.546;12.292;2023-11-25T14:12:35;1.10;99.90
36458;DHT22;22480;50.546;12.292;2023-11-25T14:15:06;1.10;99.90
36458;DHT22;22480;50.546;12.292;2023-11-25T14:17:37;1.20;99.90
36458;DHT22;22480;50.546;12.292;2023-11-25T14:20:08;1.10;99.90
36458;DHT22;22480;50.546;12.292;2023-11-25T14:22:45;1.10;99.90
36458;DHT22;22480;50.546;12.292;2023-11-25T14:25:18;1.20;99.90
36458;DHT22;22480;50.546;12.292;2023-11-25T14:27:46;1.20;99.90
36458;DHT22;22480;50.546;12.292;2023-11-25T14:30:14;1.10;99.90
36458;DHT22;22480;50.546;12.292;2023-11-25T14:32:45;1.20;99.90
36458;DHT22;22480;50.546;12.292;2023-11-25T14:35:15;1.20;99.90
36458;DHT22;22480;50.546;12.292;2023-11-25T14:37:41;1.10;99.90
36458;DHT22;22480;50.546;12.292;2023-11-25T14:40:10;1.10;99.90
36458;DHT22;22480;50.546;12.292;2023-11-25T14:42:38;1.10;99.90
36458;DHT22;22480;50.546;12.292;2023-11-25T14:45:07;1.00;99.90
36458;DHT22;22480;50.546;12.292;2023-11-25T14:47:34;1.00;99.90
36458;DHT22;22480;50.546;12.292;2023-11-25T14:50:00;1.00;99.90
36458;DHT22;22480;50.546;12.292;2023-11-25T14:52:26;1.00;99.90
36458;DHT22;22480;50.546;12.292;2023-11-25T14:54:52;1.00;99.90
36458;DHT22;22480;50.546;12.292;2023-11-25T14:57:18;1.00;99.90
36458;DHT22;22480;50.546;12.292;2023-11-25T14:59:44;1.00;99.90
36458;DHT22;22480;50.546;12.292;2023-11-25T15:02:10;0.90;99.90
36458;DHT22;22480;50.546;12.292;2023-11-25T15:04:37;0.90;99.90
36458;DHT22;22480;50.546;12.292;2023-11-25T15:07:04;0.90;99.90
36458;DHT22;22480;50.546;12.292;2023-11-25T15:09:30;0.90;99.90
36458;DHT22;22480;50.546;12.292;2023-11-25T15:11:55;0.80;99.90
36458;DHT22;22480;50.546;12.292;2023-11-25T15:14:23;0.90;99.90
36458;DHT22;22480;50.546;12.292;2023-11-25T15:16:48;0.80;99.90
36458;DHT22;22480;50.546;12.292;2023-11-25T15:19:15;0.90;99.90
36458;DHT22;22480;50.546;12.292;2023-11-25T15:21:41;0.90;99.90
36458;DHT22;22480;50.546;12.292;2023-11-25T15:24:07;0.90;99.90
36458;DHT22;22480;50.546;12.292;2023-11-25T15:26:33;0.90;99.90
36458;DHT22;22480;50.546;12.292;2023-11-25T15:29:00;0.90;99.90
36458;DHT22;22480;50.546;12.292;2023-11-25T15:31:26;0.90;99.90
36458;DHT22;22480;50.546;12.292;2023-11-25T15:33:51;0.90;99.90
36458;DHT22;22480;50.546;12.292;2023-11-25T15:36:17;0.90;99.90
36458;DHT22;22480;50.546;12.292;2023-11-25T15:38:44;0.90;99.90
36458;DHT22;22480;50.546;12.292;2023-11-25T15:41:10;0.90;99.90
36458;DHT22;22480;50.546;12.292;2023-11-25T15:43:38;0.80;99.90